Time;durP1;ratioP1;P1;durP2;ratioP2;P2;SDS_P1;SDS_P2;PMS_P1;PMS_P2;Temp;Humidity;BMP_temperature;BMP_pressure;BME280_temperature;BME280_humidity;BME280_pressure;Samples;Min_cycle;Max_cycle;Signal;HPM_P1;HPM_P2
2022/01/02 00:03:52;;;;;;;16.80;5.55;;;10.00;99.90;;;;;;6221338;23;20490;-94
2022/01/02 00:07:19;;;;;;;14.85;5.88;;;10.00;99.90;;;;;;6165320;23;20018;-94
2022/01/02 00:10:36;;;;;;;;;;;;;;;;;;;;;
2022/01/02 00:13:43;;;;;;;21.50;6.25;;;10.00;99.90;;;;;;6221935;23;20020;-94
2022/01/02 00:17:04;;;;;;;21.73;5.97;;;10.00;99.90;;;;;;6220925;23;20379;-93
2022/01/02 00:20:13;;;;;;;17.52;5.47;;;10.00;99.90;;;;;;6222649;23;20443;-93
2022/01/02 00:23:59;;;;;;;;;;;;;;;;;;;;;
2022/01/02 00:27:36;;;;;;;19.63;5.63;;;10.00;99.90;;;;;;6259722;22;20074;-93
2022/01/02 00:31:03;;;;;;;22.02;4.75;;;9.90;99.90;;;;;;6220214;23;20024;-93
2022/01/02 00:34:18;;;;;;;18.95;5.63;;;10.00;99.90;;;;;;6226727;23;20103;-94
2022/01/02 00:37:38;;;;;;;21.70;6.15;;;10.00;99.90;;;;;;6202762;23;20044;-95
2022/01/02 00:41:07;;;;;;;;;;;;;;;;;;;;;
2022/01/02 00:44:22;;;;;;;9.38;5.10;;;10.00;99.90;;;;;;6130787;23;20018;-94
2022/01/02 00:47:44;;;;;;;;;;;;;;;;;;;;;
2022/01/02 00:51:44;;;;;;;19.67;5.55;;;10.00;99.90;;;;;;6129825;23;20096;-93
2022/01/02 00:54:45;;;;;;;28.08;7.30;;;9.90;99.90;;;;;;6130829;23;20032;-95
2022/01/02 00:58:21;;;;;;;19.73;6.22;;;9.90;99.90;;;;;;6137042;23;20056;-94
2022/01/02 01:06:00;;;;;;;13.40;6.82;;;9.90;99.90;;;;;;6155816;23;20403;-93
2022/01/02 01:10:56;;;;;;;;;;;;;;;;;;;;;
2022/01/02 01:13:33;;;;;;;20.75;6.35;;;9.90;99.90;;;;;;6060282;23;20007;-94
2022/01/02 01:21:03;;;;;;;20.48;5.35;;;9.90;99.90;;;;;;6116016;23;20018;-94
2022/01/02 01:28:48;;;;;;;13.27;6.15;;;9.90;99.90;;;;;;6126583;23;20088;-95
2022/01/02 01:36:20;;;;;;;14.48;5.88;;;9.90;99.90;;;;;;6126678;23;20044;-93
2022/01/02 01:39:44;;;;;;;14.73;5.88;;;9.90;99.90;;;;;;6139519;23;20095;-95
2022/01/02 01:42:56;;;;;;;15.70;6.30;;;9.90;99.90;;;;;;6200413;23;20012;-95
2022/01/02 01:46:16;;;;;;;;;;;;;;;;;;;;;
2022/01/02 01:49:57;;;;;;;13.77;5.88;;;9.80;99.90;;;;;;6100796;23;20109;-95
2022/01/02 01:52:53;;;;;;;17.02;6.25;;;9.80;99.90;;;;;;6081713;23;20021;-95
2022/01/02 01:56:10;;;;;;;14.85;5.93;;;9.80;99.90;;;;;;5992329;23;20098;-93
2022/01/02 02:05:43;;;;;;;19.73;5.78;;;9.80;99.90;;;;;;6279998;22;20027;-94
2022/01/02 02:08:36;;;;;;;21.90;6.45;;;9.80;99.90;;;;;;6251249;22;20024;-94
2022/01/02 02:11:27;;;;;;;18.88;6.40;;;9.80;99.90;;;;;;6229752;22;20458;-92
2022/01/02 02:14:10;;;;;;;18.55;6.75;;;9.80;99.90;;;;;;6226734;22;20020;-94
2022/01/02 02:16:59;;;;;;;18.60;6.60;;;9.80;99.90;;;;;;6255236;22;20086;-92
2022/01/02 02:19:54;;;;;;;11.93;6.03;;;9.80;99.90;;;;;;6228819;22;20031;-94
2022/01/02 02:23:08;;;;;;;19.08;6.20;;;9.80;99.90;;;;;;6263766;22;20020;-92
2022/01/02 02:26:10;;;;;;;17.98;6.22;;;9.80;99.90;;;;;;6227916;22;20022;-93
2022/01/02 02:28:54;;;;;;;18.87;7.67;;;9.80;99.90;;;;;;6227390;22;20019;-94
2022/01/02 02:31:51;;;;;;;21.30;6.65;;;9.80;99.90;;;;;;6228251;22;20054;-94
2022/01/02 02:34:51;;;;;;;18.13;6.90;;;9.80;99.90;;;;;;6229562;22;20079;-93
2022/01/02 02:38:39;;;;;;;;;;;;;;;;;;;;;
2022/01/02 02:42:10;;;;;;;16.42;5.85;;;9.80;99.90;;;;;;6099078;23;20026;-93
2022/01/02 02:49:01;;;;;;;15.85;5.90;;;9.80;99.90;;;;;;6250317;22;20101;-93
2022/01/02 02:52:00;;;;;;;14.68;6.43;;;9.70;99.90;;;;;;6253274;22;20012;-95
2022/01/02 02:54:48;;;;;;;16.55;6.07;;;9.70;99.90;;;;;;6252221;22;20015;-94
2022/01/02 02:57:41;;;;;;;20.95;5.82;;;9.70;99.90;;;;;;6252330;22;20073;-93
2022/01/02 03:00:50;;;;;;;20.30;6.03;;;9.70;99.90;;;;;;6229130;22;20043;-93
2022/01/02 03:03:58;;;;;;;22.77;5.95;;;9.70;99.90;;;;;;6223002;23;20020;-93
2022/01/02 03:07:05;;;;;;;22.33;5.57;;;9.70;99.90;;;;;;6225911;23;20040;-93
2022/01/02 03:09:51;;;;;;;14.45;5.63;;;9.70;99.90;;;;;;6246141;22;20022;-93
2022/01/02 03:13:30;;;;;;;16.55;4.65;;;9.70;99.90;;;;;;6239538;23;20020;-93
2022/01/02 03:16:18;;;;;;;19.42;5.10;;;9.70;99.90;;;;;;6224171;23;20398;-96
2022/01/02 03:19:19;;;;;;;13.25;5.43;;;9.70;99.90;;;;;;6246583;22;20079;-91
2022/01/02 03:22:33;;;;;;;14.93;4.65;;;9.70;99.90;;;;;;6224189;23;20016;-93
2022/01/02 03:25:57;;;;;;;14.80;4.85;;;9.70;99.90;;;;;;6246559;23;20051;-93
2022/01/02 03:28:52;;;;;;;15.48;4.78;;;9.70;99.90;;;;;;6238800;22;20317;-92
2022/01/02 03:31:54;;;;;;;18.90;4.65;;;9.70;99.90;;;;;;6246020;23;20099;-93
2022/01/02 03:34:46;;;;;;;17.00;3.88;;;9.70;99.90;;;;;;6223116;23;20016;-93
2022/01/02 03:38:01;;;;;;;20.80;4.53;;;9.70;99.90;;;;;;6245139;23;20047;-93
2022/01/02 03:41:12;;;;;;;13.05;4.60;;;9.70;99.90;;;;;;6246121;23;20024;-94
2022/01/02 03:44:51;;;;;;;18.98;4.45;;;9.80;99.90;;;;;;6248072;23;20087;-93
2022/01/02 03:50:53;;;;;;;15.00;4.43;;;9.80;99.90;;;;;;6245594;23;20016;-92
2022/01/02 03:53:44;;;;;;;16.92;4.50;;;9.80;99.90;;;;;;6221327;23;20027;-93
2022/01/02 03:56:50;;;;;;;20.92;4.82;;;9.80;99.90;;;;;;6223667;23;20445;-95
2022/01/02 04:02:46;;;;;;;24.92;5.13;;;9.70;99.90;;;;;;6275281;22;20103;-95
2022/01/02 04:06:02;;;;;;;20.23;4.40;;;9.70;99.90;;;;;;6257249;22;20447;-93
2022/01/02 04:08:51;;;;;;;22.90;5.03;;;9.70;99.90;;;;;;6249646;22;20020;-93
2022/01/02 04:11:58;;;;;;;23.48;5.03;;;9.70;99.90;;;;;;6229613;22;20099;-92
2022/01/02 04:15:12;;;;;;;16.70;4.50;;;9.70;99.90;;;;;;6225455;22;20020;-93
2022/01/02 04:18:04;;;;;;;15.43;3.95;;;9.70;99.90;;;;;;6257604;22;20008;-92
2022/01/02 04:21:31;;;;;;;17.00;4.07;;;9.70;99.90;;;;;;6259369;22;20030;-93
2022/01/02 04:24:39;;;;;;;19.58;4.90;;;9.70;99.90;;;;;;6257640;22;20094;-93
2022/01/02 04:32:24;;;;;;;23.33;5.38;;;9.70;99.90;;;;;;6248821;22;20023;-95
2022/01/02 04:53:05;;;;;;;22.73;4.20;;;9.80;99.90;;;;;;6189935;23;20040;-93
2022/01/02 05:07:11;;;;;;;20.63;4.20;;;9.70;99.90;;;;;;6185578;23;20024;-93
2022/01/02 05:10:36;;;;;;;18.60;4.50;;;9.70;99.90;;;;;;6156188;23;20072;-93
2022/01/02 05:14:07;;;;;;;;;;;;;;;;;;;;;
2022/01/02 05:17:21;;;;;;;31.38;5.35;;;9.70;99.90;;;;;;6189706;23;20008;-94
2022/01/02 05:24:39;;;;;;;19.80;3.85;;;9.70;99.90;;;;;;6191670;23;20269;-95
2022/01/02 05:28:10;;;;;;;20.15;4.32;;;9.70;99.90;;;;;;6182540;22;20072;-94
2022/01/02 05:31:16;;;;;;;26.63;3.75;;;9.80;99.90;;;;;;6287656;22;20314;-94
2022/01/02 05:35:13;;;;;;;15.48;3.95;;;9.70;99.90;;;;;;6294954;22;20030;-95
2022/01/02 05:42:05;;;;;;;25.35;4.72;;;9.70;99.90;;;;;;6248302;22;20027;-93
2022/01/02 05:45:30;;;;;;;23.00;4.43;;;9.70;99.90;;;;;;6218702;23;20043;-95
2022/01/02 05:48:52;;;;;;;16.63;4.47;;;9.70;99.90;;;;;;6113725;23;20022;-94
2022/01/02 05:55:43;;;;;;;18.67;4.35;;;9.60;99.90;;;;;;6130389;23;20049;-93
2022/01/02 05:59:16;;;;;;;16.35;4.53;;;9.60;99.90;;;;;;5999761;23;20089;-93
2022/01/02 06:02:48;;;;;;;27.65;5.40;;;9.60;99.90;;;;;;6033262;23;20023;-93
2022/01/02 06:05:55;;;;;;;12.30;3.90;;;9.60;99.90;;;;;;6075328;23;20100;-94
2022/01/02 06:08:55;;;;;;;19.20;3.78;;;9.60;99.90;;;;;;6130615;23;20021;-94
2022/01/02 06:12:06;;;;;;;16.75;4.40;;;9.70;99.90;;;;;;6110368;23;20032;-95
2022/01/02 06:15:30;;;;;;;13.98;3.55;;;9.70;99.90;;;;;;6130126;23;20068;-94
2022/01/02 06:19:02;;;;;;;22.60;5.00;;;9.60;99.90;;;;;;6255055;22;20822;-93
2022/01/02 06:22:15;;;;;;;21.75;3.75;;;9.70;99.90;;;;;;6251193;22;20355;-94
2022/01/02 06:25:17;;;;;;;18.65;4.88;;;9.80;99.90;;;;;;6230678;22;20027;-93
2022/01/02 06:28:05;;;;;;;23.25;4.05;;;9.80;99.90;;;;;;6229402;22;20019;-92
2022/01/02 06:31:05;;;;;;;19.13;4.70;;;9.70;99.90;;;;;;6253381;22;20023;-93
2022/01/02 06:33:50;;;;;;;23.45;4.53;;;9.80;99.90;;;;;;6253331;22;20039;-93
2022/01/02 06:36:48;;;;;;;13.63;5.07;;;9.70;99.90;;;;;;6278934;22;20095;-94
2022/01/02 06:39:34;;;;;;;27.35;4.28;;;9.70;99.90;;;;;;6228895;22;20027;-93
2022/01/02 06:42:22;;;;;;;22.80;4.85;;;9.70;99.90;;;;;;6229013;22;20019;-95
2022/01/02 06:45:20;;;;;;;15.13;3.17;;;9.70;99.90;;;;;;6230631;22;20024;-92
2022/01/02 06:48:17;;;;;;;21.88;5.47;;;9.70;99.90;;;;;;6258453;22;20012;-94
2022/01/02 06:50:58;;;;;;;21.70;4.20;;;9.70;99.90;;;;;;6251967;22;20046;-92
2022/01/02 06:53:42;;;;;;;29.02;4.72;;;9.70;99.90;;;;;;6229817;22;20065;-92
2022/01/02 06:56:37;;;;;;;17.50;4.82;;;9.60;99.90;;;;;;6251062;22;20030;-92
2022/01/02 06:59:30;;;;;;;18.23;3.92;;;9.70;99.90;;;;;;6250362;22;20077;-92
2022/01/02 07:02:09;;;;;;;25.67;5.00;;;9.70;99.90;;;;;;6250759;22;20020;-93
2022/01/02 07:04:49;;;;;;;23.23;4.60;;;9.60;99.90;;;;;;6251505;22;20123;-94
2022/01/02 07:07:24;;;;;;;21.05;4.45;;;9.60;99.90;;;;;;6251608;22;20047;-94
2022/01/02 07:10:11;;;;;;;27.17;5.32;;;9.60;99.90;;;;;;6250998;22;20050;-92
2022/01/02 07:13:07;;;;;;;17.38;3.50;;;9.70;99.90;;;;;;6250920;22;20015;-93
2022/01/02 07:15:49;;;;;;;19.75;4.18;;;9.70;99.90;;;;;;6249905;22;20023;-92
2022/01/02 07:18:26;;;;;;;25.50;4.68;;;9.70;99.90;;;;;;6253234;22;20016;-93
2022/01/02 07:21:07;;;;;;;20.83;4.05;;;9.70;99.90;;;;;;6227245;22;20019;-94
2022/01/02 07:27:51;;;;;;;19.00;3.67;;;9.60;99.90;;;;;;6278481;22;20200;-94
2022/01/02 07:31:11;;;;;;;18.52;3.75;;;9.60;99.90;;;;;;6249710;22;20024;-94
2022/01/02 07:34:43;;;;;;;21.20;3.67;;;9.60;99.90;;;;;;6251650;22;20050;-94
2022/01/02 07:37:42;;;;;;;11.88;2.95;;;9.70;99.90;;;;;;6248498;22;20050;-93
2022/01/02 07:44:11;;;;;;;15.50;3.00;;;9.70;99.90;;;;;;6216751;23;20474;-92
2022/01/02 07:47:43;;;;;;;10.05;4.20;;;9.80;99.90;;;;;;6229705;23;20017;-92
2022/01/02 07:50:10;;;;;;;21.98;3.95;;;9.70;99.90;;;;;;6220279;23;20028;-93
2022/01/02 07:52:37;;;;;;;14.35;3.40;;;9.80;99.90;;;;;;6221336;23;20020;-94
2022/01/02 07:55:11;;;;;;;17.27;3.30;;;9.70;99.90;;;;;;6204047;23;20035;-95
2022/01/02 08:08:17;;;;;;;16.10;3.13;;;9.80;99.90;;;;;;6166804;23;20080;-93
2022/01/02 08:16:18;;;;;;;15.57;3.25;;;9.70;99.90;;;;;;6227022;23;20005;-93
2022/01/02 08:24:17;;;;;;;15.15;4.07;;;9.70;99.90;;;;;;6230611;23;20039;-94
2022/01/02 08:35:07;;;;;;;17.02;3.75;;;9.70;99.90;;;;;;6075751;23;20082;-96
2022/01/02 08:46:50;;;;;;;8.65;4.10;;;9.70;99.90;;;;;;5958997;24;20072;-94
2022/01/02 08:49:48;;;;;;;;;;;;;;;;;;;;;
2022/01/02 08:53:09;;;;;;;17.73;5.10;;;9.70;99.90;;;;;;5983841;24;20024;-93
2022/01/02 09:24:12;;;;;;;24.38;6.93;;;9.70;99.90;;;;;;6276654;22;20015;-93
2022/01/02 09:58:12;;;;;;;31.17;6.03;;;9.80;99.90;;;;;;6247982;23;20035;-92
2022/01/02 10:00:48;;;;;;;29.05;6.13;;;9.80;99.90;;;;;;6196915;23;20038;-91
2022/01/02 10:03:17;;;;;;;25.60;6.97;;;9.80;99.90;;;;;;6221786;23;20071;-92
2022/01/02 10:05:53;;;;;;;21.73;7.47;;;9.80;99.90;;;;;;6196351;23;20050;-93
2022/01/02 10:08:35;;;;;;;33.75;6.15;;;9.90;99.90;;;;;;6244801;23;20092;-94
2022/01/02 10:11:08;;;;;;;31.20;7.13;;;9.90;99.90;;;;;;6195873;23;20031;-91
2022/01/02 10:13:43;;;;;;;33.60;7.40;;;9.90;99.90;;;;;;6222238;23;20072;-90
2022/01/02 10:16:32;;;;;;;18.30;4.30;;;9.90;99.90;;;;;;6196170;23;20023;-93
2022/01/02 10:19:15;;;;;;;31.33;6.18;;;9.90;99.90;;;;;;6195958;23;20030;-91
2022/01/02 10:22:01;;;;;;;37.17;7.95;;;9.90;99.90;;;;;;6246795;22;20107;-90
2022/01/02 10:24:37;;;;;;;34.63;5.75;;;9.90;99.90;;;;;;6249796;23;20024;-90
2022/01/02 10:27:08;;;;;;;31.50;7.40;;;9.90;99.90;;;;;;6222244;23;20019;-90
2022/01/02 10:30:08;;;;;;;36.25;7.63;;;9.90;99.90;;;;;;6246979;23;20091;-91
2022/01/02 10:33:12;;;;;;;29.70;7.25;;;9.90;99.90;;;;;;6220527;23;20038;-92
2022/01/02 10:36:18;;;;;;;;;;;;;;;;;;;;;
2022/01/02 10:39:03;;;;;;;26.50;7.00;;;9.90;99.90;;;;;;6246067;23;20020;-94
2022/01/02 10:41:45;;;;;;;33.58;6.88;;;10.00;99.90;;;;;;6197093;23;20024;-92
2022/01/02 10:44:37;;;;;;;37.33;6.97;;;10.00;99.90;;;;;;6230521;23;20023;-93
2022/01/02 15:34:07;;;;;;;19.75;2.65;;;9.80;99.90;;;;;;6280291;22;20031;-92
2022/01/02 15:59:53;;;;;;;15.15;2.60;;;9.70;99.90;;;;;;6302500;22;20091;-92
2022/01/02 16:15:08;;;;;;;16.17;3.75;;;9.70;99.90;;;;;;6186358;23;20063;-93
2022/01/02 17:21:39;;;;;;;18.25;3.33;;;9.50;99.90;;;;;;6278527;22;20030;-92
2022/01/02 22:11:38;;;;;;;4.53;1.23;;;8.80;99.90;;;;;;6252340;22;20069;-94
2022/01/02 22:15:24;;;;;;;4.45;0.60;;;8.80;99.90;;;;;;6228815;22;20408;-92
